Readsville, Missouri
Current Conditions -  °F | °C
As of 11:53 AM on Tuesday 21 Oct 2014 (Local Time) from KJEF Reporting Station
Clear Clear  
Wind Chill: 65°   Ceiling: Unl
Heat Index: 65°   Visibility: 10mi
Dew Point: 47°   Wind: 3mph
Humidity: 52%   Direction: NA
Pressure: 30.14"   Gusts: NA
Location:  38.7662°N, 91.6923°W
Report Text: KJEF 211653Z VRB03KT 10SM CLR 18/08 A3014 RMK AO2 SLP195 T01830083
Loading
Personal Weather Stations






























Interactive Weather Map
Tropical Storm Tracking
New forecast layout! Learn more

10-Day Weather Forecast

Advertisements
Track Severe Weather on mobile